DW7431 Cala Millor ES current weather conditions

sailwx.info

Wind from 315

Air temperature 16.7° C
Dewpoint 13.6° C

Last reported at 2014-Nov-23 00:01 UTC.
Time now 2014-Nov-23 01:06 UTC

Location: N 39°36' E 003°22'.
View on Google Maps.

See reports from other nearby stations

  
Tides and Currents Weather Stations Pressure Air Temp Water Temp Dewpoint Dewpoint Depression Visibility Wind Speed Wind Dir Waves Ship Positions
date/time (UTC)wind fromknots sea level pressurealtimeterstation pressurevisibilityair tempwater tempwave heightnotes
2014-Nov-23 00:01 315 16.7
2014-Nov-22 23:01 067 16.7
2014-Nov-22 22:01 067 17.2
2014-Nov-22 20:01 022 17.8
2014-Nov-22 18:01 045 2 gusting 2 19.4
2014-Nov-22 14:01 247 1 gusting 1 20.6
2014-Nov-22 12:01 202 19.4
2014-Nov-22 11:01 247 3 gusting 4 18.9
2014-Nov-22 10:01 270 17.8
2014-Nov-22 09:01 112 16.7
2014-Nov-22 07:01 315 15.6
2014-Nov-22 05:01 022 16.7
2014-Nov-22 04:01 022 16.7
2014-Nov-22 03:01 315 17.2
2014-Nov-22 02:01 315 17.2
2014-Nov-22 01:01 022 17.8
2014-Nov-22 00:01 315 17.8
2014-Nov-21 23:01 315 18.3
2014-Nov-21 21:01 067 0 gusting 1 18.3
2014-Nov-21 20:01 067 2 gusting 1 18.3
2014-Nov-21 19:01 067 0 gusting 3 18.9
2014-Nov-21 15:01 135 3 gusting 4 20.6
2014-Nov-21 14:01 315 5 gusting 6 21.1
2014-Nov-21 13:01 112 3 gusting 3 22.2
2014-Nov-21 10:01 135 3 gusting 1 20.0
2014-Nov-21 08:01 045 2 gusting 2 16.7
2014-Nov-21 07:01 045 2 gusting 3 16.7
2014-Nov-21 05:01 022 2 gusting 3 16.7
2014-Nov-21 04:01 067 3 gusting 3 17.2
2014-Nov-21 03:01 022 2 gusting 2 17.2
2014-Nov-21 02:01 022 3 gusting 4 17.2
2014-Nov-21 01:01 112 1 gusting 2 17.8